This is the latest recevied weather packets stored in our database for station/object N2PPN. If no packets are shown the sender has not sent any weather packets the latest 10 day(s).
| Time | Temp. | Humidity | Pressure | Rain* | Wind** | Luminosity | Snow |
|---|---|---|---|---|---|---|---|
| 1777659645 | 16.67° C | 46% | 1014.5 hPa | 0 mm | - | 682 W/m² | - |
| 1777659039 | 16.67° C | 44% | 1014.6 hPa | 0 mm | - | 694 W/m² | - |
| 1777656918 | 16.11° C | 38% | 1015 hPa | 0 mm | - | 726 W/m² | - |
| 1777656615 | 15.56° C | 38% | 1014.9 hPa | 0 mm | - | 729 W/m² | - |
| 1777655096 | 16.11° C | 38% | 1015 hPa | 0 mm | - | 739 W/m² | - |
| 1777653583 | 15° C | 41% | 1015.2 hPa | 0 mm | - | 736 W/m² | - |
| 1777652976 | 15.56° C | 39% | 1015.5 hPa | 0 mm | - | 734 W/m² | - |
| 1777652672 | 15.56° C | 39% | 1015.4 hPa | 0 mm | - | 733 W/m² | - |
| 1777652369 | 15.56° C | 41% | 1015.8 hPa | 0 mm | - | 730 W/m² | - |
| 1777652066 | 15.56° C | 40% | 1015.5 hPa | 0 mm | - | 728 W/m² | - |
| 1777651459 | 14.44° C | 41% | 1015.6 hPa | 0 mm | - | 722 W/m² | - |
| 1777649945 | 14.44° C | 42% | 1015.9 hPa | 0 mm | - | 698 W/m² | - |
| 1777649643 | 15° C | 43% | 1016.1 hPa | 0 mm | - | 690 W/m² | - |
| 1777649337 | 15° C | 45% | 1016.1 hPa | 0 mm | - | 684 W/m² | - |
| 1777649035 | 13.89° C | 48% | 1016.1 hPa | 0 mm | - | 678 W/m² | - |
| 1777648733 | 13.89° C | 48% | 1016 hPa | 0 mm | - | 671 W/m² | - |
| 1777648429 | 13.89° C | 47% | 1016 hPa | 0 mm | - | 664 W/m² | - |
| 1777648125 | 13.33° C | 46% | 1016 hPa | 0 mm | - | 657 W/m² | - |
| 1777647821 | 13.33° C | 48% | 1016 hPa | 0 mm | - | 651 W/m² | - |
| 1777647518 | 13.33° C | 47% | 1015.9 hPa | 0 mm | - | 642 W/m² | - |
| 1777646912 | 12.78° C | 46% | 1015.7 hPa | 0 mm | - | 628 W/m² | - |
| 1777646304 | 12.22° C | 50% | 1016.2 hPa | 0 mm | - | 606 W/m² | - |
| 1777646001 | 12.78° C | 49% | 1015.9 hPa | 0 mm | - | 599 W/m² | - |
| 1777645698 | 12.22° C | 51% | 1015.9 hPa | 0 mm | - | 588 W/m² | - |
| 1777645394 | 12.22° C | 51% | 1015.9 hPa | 0 mm | - | 578 W/m² | - |
* Rain latest hour (hover to see other rain measurements)
** Current wind speed in m/s (hover to see current wind gust speed)